CDT,Max TemperatureF,Mean TemperatureF,Min TemperatureF,Max Dew PointF,MeanDew PointF,Min DewpointF,Max Humidity, Mean Humidity, Min Humidity, Max Sea Level PressureIn, Mean Sea Level PressureIn, Min Sea Level PressureIn, Max VisibilityMiles, Mean VisibilityMiles, Min VisibilityMiles, Max Wind SpeedMPH, Mean Wind SpeedMPH, Max Gust SpeedMPH,PrecipitationIn, CloudCover, Events, WindDirDegrees
2013-8-1,96,86,75,74,73,71,88,68,48,30.01,29.97,29.91,10,10,10,14,4,20,0.00,3,,2
2013-8-2,96,85,73,75,72,70,93,70,46,30.00,29.97,29.94,10,9,6,9,3,12,0.00,2,,144
2013-8-3,95,86,76,75,74,72,94,72,49,30.05,30.02,29.97,10,9,6,15,4,21,0.00,1,,235
2013-8-4,98,86,74,75,74,71,94,70,45,30.08,30.04,29.99,10,9,5,14,4,23,0.01,2,Rain,322
2013-8-5,96,86,76,77,75,71,94,72,49,30.04,30.00,29.94,10,8,5,18,4,24,0.20,2,Rain-Thunderstorm,156
2013-8-6,97,87,76,76,74,72,94,70,45,29.99,29.94,29.89,10,9,6,15,5,21,0.00,1,,200
2013-8-7,99,87,75,75,72,68,94,67,40,29.98,29.92,29.86,10,10,9,10,4,14,0.00,2,,185
2013-8-8,99,88,76,76,74,71,94,70,45,29.97,29.91,29.87,10,9,6,12,5,22,0.00,2,,162
2013-8-9,98,86,74,76,74,70,94,68,42,30.03,29.97,29.92,10,8,4,24,5,29,0.27,3,Rain-Thunderstorm,162
2013-8-10,95,85,75,76,73,69,94,72,49,30.10,30.04,30.01,10,10,9,12,3,,0.00,2,Thunderstorm,148
2013-8-11,94,85,75,75,72,68,94,71,47,30.12,30.08,30.04,10,9,1,23,4,26,0.36,3,Rain-Thunderstorm,158
2013-8-12,94,84,74,76,73,70,94,70,46,30.12,30.05,29.99,10,9,0,26,6,36,0.26,3,Fog-Rain-Thunderstorm,199
2013-8-13,89,82,74,76,74,71,94,81,68,30.03,29.98,29.94,10,9,0,24,5,33,0.47,4,Fog-Rain-Thunderstorm,230
2013-8-14,87,80,73,74,72,67,94,75,55,30.00,29.96,29.93,10,9,4,16,5,22,0.05,7,Rain,344
2013-8-15,87,78,68,68,65,62,81,64,46,30.02,29.98,29.95,10,10,10,13,5,18,0.00,2,,12
2013-8-16,87,77,66,71,66,63,93,71,48,30.01,29.98,29.94,10,9,5,14,3,18,0.04,4,Rain-Thunderstorm,24
2013-8-17,84,77,69,70,67,65,97,76,55,30.05,30.00,29.98,10,7,4,12,5,17,0.00,4,,77
2013-8-18,81,75,69,72,68,66,97,80,62,30.09,30.04,30.01,10,10,7,14,7,20,T,7,,53
2013-8-19,86,78,69,72,70,69,93,77,61,30.07,30.03,29.98,10,10,4,9,3,,T,6,Rain,8
2013-8-20,90,78,66,74,70,66,100,78,56,30.09,30.04,30.00,10,8,1,17,2,21,0.24,3,Rain-Thunderstorm,92
2013-8-21,89,81,73,75,73,71,100,80,59,30.16,30.10,30.04,10,8,2,12,4,,0.00,5,Rain-Thunderstorm,144
2013-8-22,93,82,70,76,72,69,94,72,49,30.12,30.06,29.99,10,10,7,21,2,29,0.68,2,Rain,83
2013-8-23,92,82,71,76,73,71,100,76,52,30.04,30.00,29.95,10,8,2,16,3,22,0.13,2,Rain-Thunderstorm,42
2013-8-24,92,82,72,75,72,70,94,72,49,30.13,30.07,30.01,10,9,2,22,3,29,0.34,2,Rain-Thunderstorm,87
2013-8-25,88,80,71,73,71,69,93,74,55,30.22,30.17,30.12,10,10,5,16,5,20,T,3,,89
2013-8-26,90,79,67,70,65,62,93,68,43,30.23,30.17,30.12,10,10,7,13,5,18,0.00,1,,87
2013-8-27,88,75,62,65,62,59,93,67,40,30.16,30.11,30.05,10,10,9,13,2,17,0.00,0,,40
2013-8-28,89,76,62,66,63,61,93,67,40,30.11,30.06,30.01,10,9,5,12,1,15,0.00,1,,107
2013-8-29,93,80,66,69,66,65,93,69,44,30.09,30.04,29.99,10,9,5,10,1,13,0.00,1,,80
2013-8-30,95,82,69,70,68,66,90,66,41,30.04,29.98,29.92,10,9,6,8,1,,0.00,1,,327
2013-8-31,95,83,70,73,70,68,93,68,42,29.98,29.91,29.86,10,8,4,10,2,15,0.00,1,,232